Time;durP1;ratioP1;P1;durP2;ratioP2;P2;SDS_P1;SDS_P2;PMS_P1;PMS_P2;Temp;Humidity;BMP_temperature;BMP_pressure;BME280_temperature;BME280_humidity;BME280_pressure;Samples;Min_cycle;Max_cycle;Signal;HPM_P1;HPM_P2
2020/12/10 00:02:29;;;;;;;26.47;19.97;;;4.50;99.90;;;;;;5096058;28;20388;-59
2020/12/10 00:04:55;;;;;;;30.20;21.50;;;4.60;99.90;;;;;;5097078;28;20149;-59
2020/12/10 00:07:22;;;;;;;27.47;20.17;;;4.60;99.90;;;;;;5096755;28;20747;-57
2020/12/10 00:09:49;;;;;;;26.60;18.77;;;4.80;99.90;;;;;;5097521;28;20284;-57
2020/12/10 00:12:14;;;;;;;25.27;20.63;;;4.80;99.90;;;;;;5098107;28;20441;-57
2020/12/10 00:14:40;;;;;;;25.47;20.07;;;4.80;99.90;;;;;;5097452;28;20403;-60
2020/12/10 00:17:06;;;;;;;23.43;17.97;;;4.70;99.90;;;;;;5096861;28;20189;-57
2020/12/10 00:19:31;;;;;;;29.30;22.03;;;4.60;99.90;;;;;;5097957;28;20514;-58
2020/12/10 00:21:57;;;;;;;27.27;19.43;;;4.40;99.90;;;;;;5098162;28;20654;-57
2020/12/10 00:24:23;;;;;;;25.77;19.20;;;4.20;99.90;;;;;;5098838;28;20527;-57
2020/12/10 00:26:49;;;;;;;28.00;20.27;;;4.20;99.90;;;;;;5096026;28;20267;-57
2020/12/10 00:29:15;;;;;;;26.67;20.13;;;4.30;99.90;;;;;;5094632;28;20435;-59
2020/12/10 00:31:41;;;;;;;30.13;20.97;;;4.20;99.90;;;;;;5094930;28;20414;-61
2020/12/10 00:34:07;;;;;;;23.67;18.07;;;4.10;99.90;;;;;;5094938;28;20406;-58
2020/12/10 00:36:33;;;;;;;31.17;21.43;;;4.20;99.90;;;;;;5094743;28;20283;-58
2020/12/10 00:38:58;;;;;;;28.93;21.60;;;4.20;99.90;;;;;;5095012;28;20415;-54
2020/12/10 00:41:24;;;;;;;29.57;21.37;;;4.20;99.90;;;;;;5094953;28;20652;-54
2020/12/10 00:43:50;;;;;;;30.30;22.53;;;4.20;99.90;;;;;;5094963;28;20575;-57
2020/12/10 00:46:15;;;;;;;26.93;20.80;;;4.30;99.90;;;;;;5094590;28;20197;-59
2020/12/10 00:48:41;;;;;;;29.27;20.50;;;4.30;99.90;;;;;;5094448;28;20675;-58
2020/12/10 00:51:08;;;;;;;29.50;21.70;;;4.50;99.90;;;;;;5094548;28;20172;-60
2020/12/10 00:53:33;;;;;;;27.67;19.33;;;4.50;99.90;;;;;;5094633;28;20396;-57
2020/12/10 00:55:59;;;;;;;31.60;20.57;;;4.50;99.90;;;;;;5094740;28;20452;-54
2020/12/10 00:58:25;;;;;;;28.40;20.53;;;4.50;99.90;;;;;;5094254;28;20636;-56
2020/12/10 01:00:52;;;;;;;29.67;21.90;;;4.50;99.90;;;;;;5094330;28;20165;-59
2020/12/10 01:03:18;;;;;;;32.53;22.53;;;4.60;99.90;;;;;;5094399;28;20410;-58
2020/12/10 01:05:43;;;;;;;27.87;20.33;;;4.60;99.90;;;;;;5083014;28;20412;-55
2020/12/10 01:08:09;;;;;;;26.13;18.93;;;4.60;99.90;;;;;;5094527;28;20555;-54
2020/12/10 01:10:35;;;;;;;26.60;20.13;;;4.70;99.90;;;;;;5094314;28;20636;-55
2020/12/10 01:13:01;;;;;;;29.67;19.70;;;4.60;99.90;;;;;;5093210;28;20170;-55
2020/12/10 01:15:26;;;;;;;26.10;19.13;;;4.60;99.90;;;;;;5093973;28;20400;-57
2020/12/10 01:17:52;;;;;;;25.43;19.00;;;4.40;99.90;;;;;;5073751;28;20200;-54
2020/12/10 01:20:18;;;;;;;23.83;17.70;;;4.30;99.90;;;;;;5073509;28;20189;-54
2020/12/10 01:22:44;;;;;;;30.43;22.23;;;4.50;99.90;;;;;;5074026;28;20170;-58
2020/12/10 01:25:09;;;;;;;26.17;19.90;;;4.40;99.90;;;;;;5074671;28;20406;-53
2020/12/10 01:27:36;;;;;;;28.90;21.47;;;4.40;99.90;;;;;;5074048;28;20243;-55
2020/12/10 01:30:02;;;;;;;29.20;21.03;;;4.50;99.90;;;;;;5073850;28;20165;-54
2020/12/10 01:32:28;;;;;;;24.13;17.17;;;4.60;99.90;;;;;;5074107;28;20969;-57
2020/12/10 01:34:54;;;;;;;32.00;20.70;;;4.60;99.90;;;;;;5073022;28;20404;-58
2020/12/10 01:37:19;;;;;;;31.10;21.80;;;4.60;99.90;;;;;;5074905;28;20205;-53
2020/12/10 01:39:45;;;;;;;25.13;19.17;;;4.50;99.90;;;;;;5073841;28;20265;-57
2020/12/10 01:42:11;;;;;;;25.17;18.00;;;4.50;99.90;;;;;;5073832;28;20400;-53
2020/12/10 01:44:37;;;;;;;22.60;16.70;;;4.40;99.90;;;;;;5073376;28;20173;-54
2020/12/10 01:47:04;;;;;;;22.47;17.90;;;4.40;99.90;;;;;;5073519;28;20435;-58
2020/12/10 01:49:33;;;;;;;25.63;17.33;;;4.20;99.90;;;;;;5073016;28;20193;-58
2020/12/10 01:51:58;;;;;;;23.47;17.20;;;4.20;99.90;;;;;;5073515;28;20408;-58
2020/12/10 01:54:24;;;;;;;21.87;15.57;;;4.20;99.90;;;;;;5073473;28;20762;-58
2020/12/10 01:56:53;;;;;;;24.80;17.33;;;4.30;99.90;;;;;;5073933;28;20182;-58
2020/12/10 01:59:19;;;;;;;24.50;19.00;;;4.20;99.90;;;;;;5093833;28;20169;-56
2020/12/10 02:01:44;;;;;;;19.27;15.87;;;4.20;99.90;;;;;;5093606;28;20411;-56
2020/12/10 02:04:28;;;;;;;25.13;19.10;;;4.30;99.90;;;;;;5093977;28;20476;-55
2020/12/10 02:06:55;;;;;;;21.40;16.13;;;4.30;99.90;;;;;;5093650;28;20181;-57
2020/12/10 02:09:21;;;;;;;24.73;18.27;;;4.30;99.90;;;;;;5092770;28;20447;-57
2020/12/10 02:11:46;;;;;;;28.30;20.07;;;4.40;99.90;;;;;;5097031;28;20411;-58
2020/12/10 02:14:12;;;;;;;27.93;19.23;;;4.40;99.90;;;;;;5097398;28;20247;-54
2020/12/10 02:16:38;;;;;;;28.87;21.53;;;4.40;99.90;;;;;;5088603;28;20243;-57
2020/12/10 02:19:03;;;;;;;26.60;19.93;;;4.40;99.90;;;;;;5077376;28;20170;-54
2020/12/10 02:21:29;;;;;;;29.30;20.30;;;4.20;99.90;;;;;;5077316;28;20193;-55
2020/12/10 02:23:55;;;;;;;31.13;19.90;;;4.10;99.90;;;;;;5077115;28;20166;-54
2020/12/10 02:26:25;;;;;;;29.83;20.00;;;4.10;99.90;;;;;;5077259;28;20189;-56
2020/12/10 02:28:51;;;;;;;31.57;22.20;;;4.20;99.90;;;;;;5076647;28;20449;-57
2020/12/10 02:31:25;;;;;;;27.87;20.77;;;4.10;99.90;;;;;;5077023;28;20396;-56
2020/12/10 02:33:50;;;;;;;28.93;21.60;;;4.20;99.90;;;;;;5076921;28;20475;-56
2020/12/10 02:36:16;;;;;;;28.00;20.20;;;4.20;99.90;;;;;;5076264;28;20491;-55
2020/12/10 02:38:42;;;;;;;26.50;19.30;;;4.30;99.90;;;;;;5076772;28;20641;-55
2020/12/10 02:41:07;;;;;;;30.60;20.57;;;4.40;99.90;;;;;;5076832;28;20169;-54
2020/12/10 02:43:33;;;;;;;23.87;18.23;;;4.50;99.90;;;;;;5075289;28;20178;-55
2020/12/10 02:45:59;;;;;;;24.77;18.60;;;4.50;99.90;;;;;;5075618;28;20177;-58
2020/12/10 02:48:24;;;;;;;29.50;21.57;;;4.50;99.90;;;;;;5076738;28;20723;-57
2020/12/10 02:50:50;;;;;;;28.80;20.63;;;4.60;99.90;;;;;;5076749;28;20315;-55
2020/12/10 02:53:16;;;;;;;29.70;20.23;;;4.60;99.90;;;;;;5076634;28;20169;-56
2020/12/10 02:55:42;;;;;;;26.90;18.73;;;4.60;99.90;;;;;;5076855;28;20404;-57
2020/12/10 02:58:08;;;;;;;26.67;19.80;;;4.40;99.90;;;;;;5076773;28;20427;-56
2020/12/10 03:00:36;;;;;;;26.77;19.90;;;4.40;99.90;;;;;;5076179;28;20170;-62
2020/12/10 03:03:01;;;;;;;31.27;20.17;;;4.20;99.90;;;;;;5076461;28;20658;-54
2020/12/10 03:05:27;;;;;;;25.87;18.93;;;4.30;99.90;;;;;;5076372;28;20434;-58
2020/12/10 03:07:52;;;;;;;29.97;20.57;;;4.20;99.90;;;;;;5076126;28;20189;-58
2020/12/10 03:10:18;;;;;;;32.43;22.77;;;4.30;99.90;;;;;;5076219;28;20166;-58
2020/12/10 03:12:43;;;;;;;33.27;19.77;;;4.20;99.90;;;;;;5076364;28;20583;-57
2020/12/10 03:15:09;;;;;;;27.17;19.03;;;4.30;99.90;;;;;;5075822;28;20172;-58
2020/12/10 03:17:35;;;;;;;29.07;20.10;;;4.30;99.90;;;;;;5075184;28;20190;-56
2020/12/10 03:20:00;;;;;;;30.70;21.70;;;4.20;99.90;;;;;;5075940;28;20182;-56
2020/12/10 03:22:26;;;;;;;31.47;22.47;;;4.20;99.90;;;;;;5075621;28;20173;-56
2020/12/10 03:24:51;;;;;;;29.90;20.27;;;4.20;99.90;;;;;;5076806;28;20174;-57
2020/12/10 03:27:17;;;;;;;24.73;18.57;;;4.20;99.90;;;;;;5076342;28;20186;-58
2020/12/10 03:29:42;;;;;;;24.80;18.10;;;4.30;99.90;;;;;;5076260;28;20327;-55
2020/12/10 03:32:08;;;;;;;30.83;21.80;;;4.30;99.90;;;;;;5076030;28;20196;-58
2020/12/10 03:34:34;;;;;;;29.57;20.50;;;4.10;99.90;;;;;;5075319;28;20650;-58
2020/12/10 03:37:00;;;;;;;27.23;20.53;;;4.10;99.90;;;;;;5075307;28;20193;-54
2020/12/10 03:39:28;;;;;;;29.30;21.43;;;4.20;99.90;;;;;;5077281;28;20162;-55
2020/12/10 03:41:58;;;;;;;26.07;19.90;;;4.20;99.90;;;;;;5077217;28;20995;-58
2020/12/10 03:44:24;;;;;;;32.30;21.93;;;4.10;99.90;;;;;;5077177;28;20423;-57
2020/12/10 03:46:49;;;;;;;27.70;20.33;;;4.00;99.90;;;;;;5076137;28;20950;-54
2020/12/10 03:49:15;;;;;;;31.63;21.80;;;4.10;99.90;;;;;;5076905;28;20264;-60
2020/12/10 03:51:41;;;;;;;26.00;19.77;;;4.20;99.90;;;;;;5113880;28;20169;-53
2020/12/10 03:54:07;;;;;;;27.97;19.73;;;4.10;99.90;;;;;;5117164;28;20405;-55
2020/12/10 03:56:33;;;;;;;34.03;22.93;;;4.10;99.90;;;;;;5109433;28;20196;-55
2020/12/10 03:59:00;;;;;;;32.60;22.80;;;4.20;99.90;;;;;;5086805;28;20411;-53
2020/12/10 04:01:26;;;;;;;33.47;23.37;;;4.10;99.90;;;;;;5095918;28;20169;-53
2020/12/10 04:03:51;;;;;;;33.57;23.37;;;3.90;99.90;;;;;;5096149;28;20837;-58
2020/12/10 04:06:17;;;;;;;32.93;22.77;;;4.00;99.90;;;;;;5082220;28;20474;-55
2020/12/10 04:08:43;;;;;;;30.00;21.10;;;4.10;99.90;;;;;;5075675;28;20228;-58
2020/12/10 04:11:08;;;;;;;35.47;23.50;;;4.30;99.90;;;;;;5076729;28;20404;-57
2020/12/10 04:13:34;;;;;;;30.90;20.03;;;4.30;99.90;;;;;;5080144;28;20166;-58
2020/12/10 04:16:01;;;;;;;30.43;22.03;;;4.30;99.90;;;;;;5080198;28;20181;-58
2020/12/10 04:18:27;;;;;;;33.50;23.83;;;4.30;99.90;;;;;;5079585;28;20538;-56
2020/12/10 04:20:53;;;;;;;32.43;22.73;;;4.30;99.90;;;;;;5078624;28;20424;-57
2020/12/10 04:23:18;;;;;;;34.10;24.07;;;4.30;99.90;;;;;;5075926;28;20396;-53
2020/12/10 04:25:44;;;;;;;31.90;21.73;;;4.20;99.90;;;;;;5075687;28;20170;-57
2020/12/10 04:28:10;;;;;;;39.53;26.37;;;4.00;99.90;;;;;;5075969;28;20280;-53
2020/12/10 04:30:35;;;;;;;34.30;22.90;;;3.80;99.90;;;;;;5078735;28;20527;-58
2020/12/10 04:33:01;;;;;;;29.47;20.87;;;3.90;99.90;;;;;;5078569;28;20177;-56
2020/12/10 04:35:26;;;;;;;39.90;25.00;;;4.10;99.90;;;;;;5078423;28;20173;-58
2020/12/10 04:37:52;;;;;;;39.83;24.23;;;4.10;99.90;;;;;;5078712;28;20266;-58
2020/12/10 04:40:17;;;;;;;37.53;24.90;;;4.10;99.90;;;;;;5079342;28;20174;-57
2020/12/10 04:42:46;;;;;;;37.03;25.63;;;3.90;99.90;;;;;;5078666;28;20253;-57
2020/12/10 04:45:11;;;;;;;36.53;23.63;;;3.70;99.90;;;;;;5074510;28;20177;-58
2020/12/10 04:47:38;;;;;;;38.50;26.33;;;3.60;99.90;;;;;;5074353;28;20527;-56
2020/12/10 04:50:04;;;;;;;37.70;24.40;;;3.60;99.90;;;;;;5074226;28;20166;-57
2020/12/10 04:52:32;;;;;;;38.00;24.50;;;3.80;99.90;;;;;;5074265;28;20456;-58
2020/12/10 04:54:58;;;;;;;41.07;25.83;;;3.90;99.90;;;;;;5074509;28;20838;-55
2020/12/10 04:57:29;;;;;;;32.07;22.57;;;4.00;99.90;;;;;;5074120;28;20448;-57
2020/12/10 04:59:55;;;;;;;35.17;22.10;;;4.10;99.90;;;;;;5074452;28;20404;-55
2020/12/10 05:02:20;;;;;;;39.53;25.10;;;4.00;99.90;;;;;;5074423;28;20396;-57
2020/12/10 05:04:46;;;;;;;32.83;24.07;;;4.10;99.90;;;;;;5073034;28;20177;-57
2020/12/10 05:07:11;;;;;;;30.53;22.10;;;4.20;99.90;;;;;;5073988;28;20189;-57
2020/12/10 05:09:37;;;;;;;32.27;22.97;;;4.10;99.90;;;;;;5073782;28;20193;-57
2020/12/10 05:12:16;;;;;;;27.43;19.63;;;3.80;99.90;;;;;;5074264;28;20162;-57
2020/12/10 05:14:47;;;;;;;28.27;20.77;;;3.80;99.90;;;;;;5074075;28;20229;-53
2020/12/10 05:17:15;;;;;;;28.20;20.83;;;3.70;99.90;;;;;;5072787;28;20444;-53
2020/12/10 05:19:41;;;;;;;31.80;21.47;;;3.70;99.90;;;;;;5073373;28;20431;-58
2020/12/10 05:22:08;;;;;;;36.63;22.47;;;3.70;99.90;;;;;;5073991;28;20414;-52
2020/12/10 05:24:34;;;;;;;30.30;21.03;;;3.80;99.90;;;;;;5074230;28;20411;-53
2020/12/10 05:27:21;;;;;;;33.03;23.30;;;4.00;99.90;;;;;;5073575;28;20424;-54
2020/12/10 05:29:48;;;;;;;34.23;20.60;;;4.10;99.90;;;;;;5072469;28;20958;-56
2020/12/10 05:32:42;;;;;;;32.30;20.13;;;4.20;99.90;;;;;;5073421;28;20400;-55
2020/12/10 05:35:13;;;;;;;35.90;25.10;;;4.10;99.90;;;;;;5073899;28;20439;-57
2020/12/10 05:37:40;;;;;;;38.83;25.27;;;3.70;99.90;;;;;;5073215;28;20456;-58
2020/12/10 05:40:06;;;;;;;33.90;24.10;;;3.60;99.90;;;;;;5073621;28;20487;-58
2020/12/10 05:42:40;;;;;;;35.93;24.07;;;3.70;99.90;;;;;;5072265;28;20412;-58
2020/12/10 05:45:14;;;;;;;36.60;24.53;;;3.80;99.90;;;;;;5073407;28;20446;-56
2020/12/10 05:47:44;;;;;;;34.00;24.60;;;3.90;99.90;;;;;;5073512;28;20427;-56
2020/12/10 05:50:12;;;;;;;37.77;25.73;;;3.80;99.90;;;;;;5072136;28;20763;-57
2020/12/10 05:52:42;;;;;;;41.40;25.17;;;3.60;99.90;;;;;;5073237;28;20414;-56
2020/12/10 05:55:08;;;;;;;36.90;24.90;;;3.70;99.90;;;;;;5073739;28;20442;-58
2020/12/10 05:57:34;;;;;;;41.47;25.67;;;3.70;99.90;;;;;;5073375;28;20416;-58
2020/12/10 06:00:03;;;;;;;36.50;25.10;;;3.80;99.90;;;;;;5086610;28;20539;-57
2020/12/10 06:02:30;;;;;;;35.50;24.40;;;3.80;99.90;;;;;;5093171;28;20161;-56
2020/12/10 06:04:56;;;;;;;35.80;24.70;;;3.60;99.90;;;;;;5093404;28;20831;-57
2020/12/10 06:07:22;;;;;;;37.43;23.80;;;3.70;99.90;;;;;;5092716;28;20427;-58
2020/12/10 06:09:48;;;;;;;34.73;23.87;;;3.90;99.90;;;;;;5093074;28;20458;-56
2020/12/10 06:12:13;;;;;;;31.43;22.00;;;3.90;99.90;;;;;;5093561;28;20184;-56
2020/12/10 06:14:51;;;;;;;32.93;23.97;;;4.00;99.90;;;;;;5093389;28;20167;-55
2020/12/10 06:17:17;;;;;;;35.20;22.37;;;3.60;99.90;;;;;;5074831;28;20193;-56
2020/12/10 06:19:42;;;;;;;32.90;23.07;;;3.60;99.90;;;;;;5073573;28;20530;-56
2020/12/10 06:22:27;;;;;;;30.90;23.00;;;3.60;99.90;;;;;;5072604;28;20177;-59
2020/12/10 06:24:55;;;;;;;25.67;19.23;;;3.60;99.90;;;;;;5073676;28;20539;-57
2020/12/10 06:27:34;;;;;;;25.53;19.10;;;3.70;99.90;;;;;;5073253;28;20456;-59
2020/12/10 06:30:17;;;;;;;27.40;19.90;;;3.80;99.90;;;;;;5073168;28;20459;-58
2020/12/10 06:32:47;;;;;;;26.63;18.70;;;3.90;99.90;;;;;;5073098;28;20400;-58
2020/12/10 06:35:34;;;;;;;31.83;23.07;;;3.80;99.90;;;;;;5072699;28;20477;-58
2020/12/10 06:38:01;;;;;;;27.00;20.47;;;3.80;99.90;;;;;;5073224;28;20435;-59
2020/12/10 06:40:41;;;;;;;33.63;23.40;;;3.70;99.90;;;;;;5073270;28;20400;-56
2020/12/10 06:43:08;;;;;;;31.97;21.87;;;3.80;99.90;;;;;;5073235;28;20474;-56
2020/12/10 06:45:36;;;;;;;27.90;22.20;;;3.80;99.90;;;;;;5072963;28;20415;-57
2020/12/10 06:48:11;;;;;;;30.27;20.37;;;3.70;99.90;;;;;;5072974;28;20603;-58
2020/12/10 06:50:39;;;;;;;30.10;19.53;;;3.60;99.90;;;;;;5078700;28;20416;-58
2020/12/10 06:53:16;;;;;;;33.03;22.03;;;3.70;99.90;;;;;;5073001;28;20420;-56
2020/12/10 06:55:58;;;;;;;29.10;20.43;;;3.80;99.90;;;;;;5074103;28;20392;-57
2020/12/10 06:58:40;;;;;;;28.80;22.83;;;3.90;99.90;;;;;;5076936;28;20401;-57
2020/12/10 07:01:23;;;;;;;27.43;20.27;;;3.90;99.90;;;;;;5076211;28;20437;-59
2020/12/10 07:03:58;;;;;;;30.43;20.10;;;4.10;99.90;;;;;;5076294;28;20435;-57
2020/12/10 07:06:24;;;;;;;27.20;19.47;;;4.00;99.90;;;;;;5076305;28;20469;-55
2020/12/10 07:09:04;;;;;;;28.70;20.73;;;3.90;99.90;;;;;;5075391;28;20448;-55
2020/12/10 07:11:32;;;;;;;33.20;21.23;;;4.00;99.90;;;;;;5075666;28;20660;-58
2020/12/10 07:13:58;;;;;;;38.97;24.13;;;3.90;99.90;;;;;;5074913;28;20822;-57
2020/12/10 07:16:31;;;;;;;30.70;20.53;;;3.70;99.90;;;;;;5075048;28;20450;-57
2020/12/10 07:18:58;;;;;;;31.00;21.57;;;3.90;99.90;;;;;;5076017;28;20441;-57
2020/12/10 07:21:23;;;;;;;31.20;20.37;;;4.00;99.90;;;;;;5075991;28;20381;-59
2020/12/10 07:23:50;;;;;;;36.77;23.87;;;4.10;99.90;;;;;;5076367;28;20420;-56
2020/12/10 07:26:17;;;;;;;32.87;21.20;;;4.10;99.90;;;;;;5076217;28;20182;-59
2020/12/10 07:28:44;;;;;;;34.50;23.00;;;4.20;99.90;;;;;;5075624;28;20446;-57
2020/12/10 07:31:14;;;;;;;33.03;21.67;;;4.20;99.90;;;;;;5075565;28;20449;-58
2020/12/10 07:33:40;;;;;;;41.60;25.80;;;4.10;99.90;;;;;;5075340;28;20456;-59
2020/12/10 07:36:07;;;;;;;28.30;20.13;;;4.10;99.90;;;;;;5075542;28;20427;-58
2020/12/10 07:38:33;;;;;;;30.03;22.50;;;4.20;99.90;;;;;;5076011;28;20215;-57
2020/12/10 07:40:58;;;;;;;32.50;20.47;;;4.20;99.90;;;;;;5075514;28;20409;-59
2020/12/10 07:43:26;;;;;;;32.27;21.70;;;4.20;99.90;;;;;;5076165;28;20169;-58
2020/12/10 07:45:52;;;;;;;33.40;21.50;;;4.20;99.90;;;;;;5075089;28;20178;-58
2020/12/10 07:48:18;;;;;;;24.40;18.10;;;4.20;99.90;;;;;;5075483;28;20444;-58
2020/12/10 07:50:48;;;;;;;29.40;19.33;;;4.30;99.90;;;;;;5075351;28;20833;-58
2020/12/10 07:53:14;;;;;;;34.20;23.03;;;4.30;99.90;;;;;;5075554;28;20257;-55
2020/12/10 07:55:58;;;;;;;30.27;21.63;;;4.40;99.90;;;;;;5075768;28;20855;-56
2020/12/10 07:58:56;;;;;;;33.30;24.07;;;4.50;99.90;;;;;;5076672;28;20208;-53
2020/12/10 08:01:23;;;;;;;34.83;23.37;;;4.30;99.90;;;;;;5073397;28;20506;-54
2020/12/10 08:04:19;;;;;;;28.47;21.43;;;4.30;99.90;;;;;;5075599;28;20400;-55
2020/12/10 08:06:49;;;;;;;30.47;21.70;;;4.40;99.90;;;;;;5091446;28;20510;-55
2020/12/10 08:09:15;;;;;;;33.13;24.60;;;4.30;99.90;;;;;;5094295;28;20478;-58
2020/12/10 08:11:53;;;;;;;31.17;21.47;;;4.30;99.90;;;;;;5095150;28;20438;-58
2020/12/10 08:14:30;;;;;;;34.30;22.33;;;4.20;99.90;;;;;;5095475;28;20862;-56
2020/12/10 08:16:58;;;;;;;35.43;23.67;;;4.20;99.90;;;;;;5083287;28;20434;-59
2020/12/10 08:19:31;;;;;;;38.40;24.10;;;4.00;99.90;;;;;;5073551;28;20471;-59
2020/12/10 08:21:59;;;;;;;35.20;24.40;;;3.90;99.90;;;;;;5074476;28;20403;-58
2020/12/10 08:24:41;;;;;;;30.37;21.30;;;3.90;99.90;;;;;;5074838;28;20465;-58
2020/12/10 08:27:09;;;;;;;32.80;21.90;;;4.00;99.90;;;;;;5074399;28;20429;-58
2020/12/10 08:29:35;;;;;;;36.27;24.53;;;4.00;99.90;;;;;;5074255;28;20445;-57
2020/12/10 08:32:11;;;;;;;36.10;23.10;;;4.10;99.90;;;;;;5074494;28;20491;-57
2020/12/10 08:34:38;;;;;;;36.00;21.97;;;4.20;99.90;;;;;;5074819;28;20189;-58
2020/12/10 08:37:09;;;;;;;41.43;24.70;;;4.20;99.90;;;;;;5073357;28;20436;-58
2020/12/10 08:39:38;;;;;;;33.10;23.77;;;4.20;99.90;;;;;;5074790;28;20385;-56
2020/12/10 08:42:05;;;;;;;26.23;18.60;;;4.30;99.90;;;;;;5074607;28;20400;-57
2020/12/10 08:44:53;;;;;;;32.70;22.37;;;4.50;99.90;;;;;;5074550;28;20403;-58
2020/12/10 08:47:26;;;;;;;31.67;21.20;;;4.60;99.90;;;;;;5074714;28;20797;-58
2020/12/10 08:50:29;;;;;;;31.73;21.20;;;4.50;99.90;;;;;;5074474;28;20802;-58
2020/12/10 08:53:00;;;;;;;28.30;19.20;;;4.40;99.90;;;;;;5073971;28;20392;-57
2020/12/10 08:55:39;;;;;;;25.43;17.73;;;4.20;99.90;;;;;;5074147;28;20462;-55
2020/12/10 08:58:06;;;;;;;27.03;19.80;;;4.40;99.90;;;;;;5074020;28;20424;-56
2020/12/10 09:00:34;;;;;;;26.40;18.77;;;4.40;99.90;;;;;;5074450;28;20849;-58
2020/12/10 09:03:00;;;;;;;29.13;20.50;;;4.50;99.90;;;;;;5074170;28;20408;-58
2020/12/10 09:05:25;;;;;;;26.63;16.97;;;4.60;99.90;;;;;;5073864;28;20499;-58
2020/12/10 09:07:51;;;;;;;21.53;14.70;;;4.50;99.90;;;;;;5073786;28;20202;-53
2020/12/10 09:10:19;;;;;;;19.87;14.43;;;4.50;99.90;;;;;;5072791;28;20174;-57
2020/12/10 09:12:45;;;;;;;19.80;15.20;;;4.50;99.90;;;;;;5075253;28;20591;-54
2020/12/10 09:15:11;;;;;;;29.43;17.10;;;4.50;99.90;;;;;;5076393;28;20413;-56
2020/12/10 09:17:36;;;;;;;20.30;14.37;;;4.50;99.90;;;;;;5075160;28;20197;-57
2020/12/10 09:20:03;;;;;;;17.50;13.00;;;4.30;99.90;;;;;;5074553;28;20447;-54
2020/12/10 09:22:28;;;;;;;14.00;12.47;;;4.30;99.90;;;;;;5072995;28;20174;-59
2020/12/10 09:24:56;;;;;;;16.23;12.83;;;4.20;99.90;;;;;;5073731;28;20423;-58
2020/12/10 09:27:22;;;;;;;12.57;10.67;;;4.10;99.90;;;;;;5073908;28;20194;-58
2020/12/10 09:29:48;;;;;;;15.15;12.20;;;4.40;99.90;;;;;;5073585;28;20798;-53
2020/12/10 09:32:14;;;;;;;17.80;12.57;;;4.70;99.90;;;;;;5073814;28;20299;-53
2020/12/10 09:34:40;;;;;;;12.60;10.50;;;4.90;99.90;;;;;;5074031;28;20434;-57
2020/12/10 09:37:05;;;;;;;14.77;11.50;;;4.70;99.90;;;;;;5073363;28;20498;-58
2020/12/10 09:39:33;;;;;;;14.43;10.97;;;4.90;99.90;;;;;;5074033;28;20166;-53
2020/12/10 09:42:03;;;;;;;16.77;12.47;;;4.80;99.90;;;;;;5075441;28;20262;-56
2020/12/10 09:44:28;;;;;;;14.07;10.87;;;5.10;99.90;;;;;;5092473;28;20960;-55
2020/12/10 09:46:54;;;;;;;15.40;10.57;;;5.30;99.90;;;;;;5083656;28;20427;-55
2020/12/10 09:49:20;;;;;;;12.43;10.23;;;5.30;99.90;;;;;;5086904;28;20594;-57
2020/12/10 09:51:47;;;;;;;13.40;10.43;;;5.50;99.90;;;;;;5092227;28;20660;-57
2020/12/10 09:57:22;;;;;;;15.30;11.53;;;5.30;99.90;;;;;;5094164;28;20469;-57
2020/12/10 09:59:48;;;;;;;14.70;11.70;;;5.30;99.90;;;;;;5093833;28;20415;-58
2020/12/10 10:02:16;;;;;;;13.87;10.43;;;5.30;99.90;;;;;;5093709;28;20411;-58
2020/12/10 10:04:42;;;;;;;13.40;9.80;;;5.30;99.90;;;;;;5093911;28;20165;-54
2020/12/10 10:07:07;;;;;;;13.30;10.10;;;5.40;99.90;;;;;;5093465;28;20794;-54
2020/12/10 10:09:34;;;;;;;11.60;9.47;;;5.40;99.90;;;;;;5096088;28;20597;-55
2020/12/10 10:11:59;;;;;;;11.57;9.30;;;5.50;99.90;;;;;;5093417;28;20161;-55
2020/12/10 10:14:25;;;;;;;13.40;10.30;;;5.40;99.90;;;;;;5074477;28;20415;-57
2020/12/10 10:16:53;;;;;;;11.00;9.80;;;5.30;99.90;;;;;;5073344;28;20186;-54
2020/12/10 10:19:19;;;;;;;11.90;10.20;;;4.90;99.90;;;;;;5073363;28;20204;-57
2020/12/10 10:21:45;;;;;;;12.37;10.67;;;4.70;99.90;;;;;;5072501;28;20388;-57
2020/12/10 10:24:10;;;;;;;14.40;10.80;;;4.60;99.90;;;;;;5072590;28;20698;-56
2020/12/10 10:26:36;;;;;;;13.80;11.67;;;4.60;99.90;;;;;;5073111;28;20186;-57
2020/12/10 10:29:05;;;;;;;11.47;10.20;;;4.50;99.90;;;;;;5072543;28;20186;-57
2020/12/10 10:31:31;;;;;;;16.17;13.07;;;4.80;99.90;;;;;;5075009;28;20245;-57
2020/12/10 10:33:56;;;;;;;18.00;14.10;;;5.00;99.90;;;;;;5077320;28;20838;-54
2020/12/10 10:36:22;;;;;;;15.27;11.50;;;5.10;99.90;;;;;;5077334;28;20292;-57
2020/12/10 10:38:48;;;;;;;15.83;12.37;;;5.30;99.90;;;;;;5096291;28;20173;-57
2020/12/10 10:41:14;;;;;;;19.40;13.60;;;5.50;99.90;;;;;;5096128;28;20442;-57
2020/12/10 10:43:39;;;;;;;17.00;12.53;;;5.50;99.90;;;;;;5085954;28;20469;-58
2020/12/10 10:46:05;;;;;;;16.57;13.10;;;5.40;99.90;;;;;;5077290;28;20202;-58
2020/12/10 10:48:31;;;;;;;16.40;13.47;;;5.40;99.90;;;;;;5076753;28;20190;-58
2020/12/10 10:50:57;;;;;;;18.20;14.90;;;5.20;99.90;;;;;;5076627;28;20158;-55
2020/12/10 10:53:23;;;;;;;22.30;14.17;;;5.10;99.90;;;;;;5076534;28;20228;-58
2020/12/10 10:55:49;;;;;;;18.63;13.20;;;5.10;99.90;;;;;;5077091;28;20411;-53
2020/12/10 10:58:15;;;;;;;18.33;13.90;;;5.10;99.90;;;;;;5076743;28;20630;-54
2020/12/10 11:00:40;;;;;;;15.90;12.90;;;4.80;99.90;;;;;;5077342;28;20493;-53
2020/12/10 11:03:06;;;;;;;15.53;12.30;;;4.80;99.90;;;;;;5077375;28;20162;-56
2020/12/10 11:05:31;;;;;;;16.70;13.47;;;5.10;99.90;;;;;;5077414;28;20170;-54
2020/12/10 11:07:57;;;;;;;15.10;13.17;;;5.10;99.90;;;;;;5075787;28;20301;-54
2020/12/10 11:10:24;;;;;;;16.13;13.97;;;5.00;99.90;;;;;;5076904;28;20162;-55
2020/12/10 11:12:52;;;;;;;17.90;13.20;;;5.20;99.90;;;;;;5076329;28;20422;-55
2020/12/10 11:15:18;;;;;;;17.80;13.60;;;5.40;99.90;;;;;;5077085;28;20395;-52
2020/12/10 11:17:43;;;;;;;17.50;13.60;;;5.40;99.90;;;;;;5076629;28;20416;-57
2020/12/10 11:20:09;;;;;;;16.50;12.80;;;5.50;99.90;;;;;;5076883;28;20649;-54
2020/12/10 11:22:37;;;;;;;15.77;13.00;;;5.30;99.90;;;;;;5076445;28;20202;-57
2020/12/10 11:25:04;;;;;;;14.90;12.80;;;5.20;99.90;;;;;;5075591;28;20653;-56
2020/12/10 11:27:31;;;;;;;18.90;14.30;;;5.30;99.90;;;;;;5077897;28;20428;-56
2020/12/10 11:29:58;;;;;;;19.00;13.40;;;5.20;99.90;;;;;;5079213;28;20448;-62
2020/12/10 11:32:23;;;;;;;18.67;14.00;;;5.10;99.90;;;;;;5077632;28;20404;-57
2020/12/10 11:34:49;;;;;;;18.10;14.07;;;4.90;99.90;;;;;;5079918;28;20400;-55
2020/12/10 11:37:15;;;;;;;19.47;15.23;;;4.90;99.90;;;;;;5079830;28;20197;-57
2020/12/10 11:39:40;;;;;;;20.13;15.30;;;5.10;99.90;;;;;;5079276;28;20172;-58
2020/12/10 11:42:06;;;;;;;20.57;14.30;;;5.30;99.90;;;;;;5080014;28;20178;-56
2020/12/10 11:44:32;;;;;;;19.53;15.30;;;5.50;99.90;;;;;;5078195;28;20249;-57
2020/12/10 11:46:58;;;;;;;24.50;16.40;;;5.40;99.90;;;;;;5078216;28;20189;-56
2020/12/10 11:49:23;;;;;;;25.33;16.20;;;5.30;99.90;;;;;;5078875;28;20448;-57
2020/12/10 11:51:49;;;;;;;18.93;14.13;;;5.30;99.90;;;;;;5076334;28;20532;-58
2020/12/10 11:54:14;;;;;;;18.60;13.43;;;5.30;99.90;;;;;;5075766;28;20169;-57
2020/12/10 11:56:40;;;;;;;20.50;15.40;;;5.40;99.90;;;;;;5076383;28;20185;-56
2020/12/10 11:59:06;;;;;;;22.87;16.47;;;5.30;99.90;;;;;;5075896;28;20203;-57
2020/12/10 12:01:31;;;;;;;21.93;14.50;;;5.20;99.90;;;;;;5075774;28;20253;-57
2020/12/10 12:03:58;;;;;;;19.40;15.80;;;5.30;99.90;;;;;;5075087;28;20177;-54
2020/12/10 12:06:25;;;;;;;20.30;16.17;;;5.20;99.90;;;;;;5076106;28;20189;-56
2020/12/10 12:08:51;;;;;;;22.53;16.87;;;5.20;99.90;;;;;;5077690;28;20527;-56
2020/12/10 12:11:25;;;;;;;22.80;16.07;;;5.20;99.90;;;;;;5077609;28;20430;-58
2020/12/10 12:13:52;;;;;;;24.07;15.70;;;5.20;99.90;;;;;;5095085;28;20183;-57
2020/12/10 12:16:18;;;;;;;21.60;14.87;;;5.30;99.90;;;;;;5103218;28;20449;-57
2020/12/10 12:18:44;;;;;;;22.57;16.90;;;5.40;99.90;;;;;;5101994;28;20407;-56
2020/12/10 12:21:10;;;;;;;21.70;16.67;;;5.60;99.90;;;;;;5098713;28;20910;-57
2020/12/10 12:23:36;;;;;;;22.30;14.00;;;5.70;99.90;;;;;;5095633;28;20404;-55
2020/12/10 12:26:02;;;;;;;23.53;15.60;;;5.60;99.90;;;;;;5096583;28;20166;-56
2020/12/10 12:28:28;;;;;;;24.33;17.30;;;5.70;99.90;;;;;;5106244;28;20205;-57
2020/12/10 12:30:57;;;;;;;21.50;16.43;;;5.80;99.90;;;;;;5103339;28;20231;-56
2020/12/10 12:33:22;;;;;;;20.77;14.50;;;5.90;99.90;;;;;;5103090;28;20400;-57
2020/12/10 12:35:49;;;;;;;22.50;17.13;;;5.90;99.90;;;;;;5091962;28;20443;-58
2020/12/10 12:38:17;;;;;;;23.77;16.10;;;6.00;99.90;;;;;;5082510;28;20181;-54
2020/12/10 12:40:42;;;;;;;20.77;17.30;;;5.90;99.90;;;;;;5075893;28;20415;-56
2020/12/10 12:43:08;;;;;;;22.97;16.47;;;5.70;99.90;;;;;;5074823;28;20404;-56
2020/12/10 12:45:34;;;;;;;23.93;17.00;;;5.80;99.90;;;;;;5075158;28;20162;-56